Terminal Aerodrome Forecast
Issued by NWS

Home | Current Version | Previous Version | Graphics & Text | Print | Product List | Glossary On
Versions: 1 2 3 4 5 6 7 8 9 10 11 12 13 14 15 16
642
FTUS43 KTOP 230520
TAFFOE
TAF
KFOE 230520Z 2306/2406 12012KT P6SM OVC035
     FM230730 13013KT P6SM -DZ OVC021
     FM230900 14014KT 6SM -DZ OVC012
     FM231400 15016G25KT P6SM BKN026
     FM231800 17019G29KT P6SM SCT035=

USA.gov is the U.S. government's official web portal to all federal, state and local government web resources and services.